Hauptseite
METAR-TAF:

METAR-TAF

Flughäfen :

Heeresflugplatz Fritzlar

Fritzlar, Deutschland

Breite: 51-07N, Länge: 009-17E, Höhe: 172 m

Beobachtung

Neuester Wetterbericht von vor 46 Minuten, um 20:20 UTC
Wind 6 kt aus Südwest
Temperatur 3°C
Luftfeuchtigkeit 81%
Luftdruck 1004 hPa
Sichtweite 10 km oder mehr
Durchbrochene Bewölkung in der Höhe von 18000 ft

METAR: ETHF 162020Z 22006KT 9999 BKN180 03/M00 Q1004 BLU

Zeit: 22:06 (21:06 UTC)

Prognose

Neuester Wetterbericht von vor 6 Stunden und 51 Minuten, um 14:15 UTC
Gültige Prognose vom 16 um 15 UTC bis 16 um 24 UTC
Wind 10 kt aus Südwest
Sichtweite: 1500 m
Leicht bewölkt in der Höhe von 1500 ft
Durchbrochene Bewölkung in der Höhe von 2000 ft

TAF: ETHF 161415Z 1615/1624 22010KT 9999 NSW FEW015 BKN020 CANCEL 1500

Wetterbeobachtungen und Prognosen von mehr als 4000 Flughäfen (METAR und TAF Bericht).

Die verfügbaren Stationen werden durch gelbe und rote Markierungen auf der Karte dargestellt.

Führen Sie die Maus auf sie, um den Namen der Station zu sehen.

Darauf klicken, um die Beobachtung von Wetterbeobachtungen und Prognosen zu sehen.

Um die Karte zu ändern : klicken Sie auf den grünen Tasten mit einem schwarzen Kreuz Zum Vergrößern, auf den grünen Button mit einem Gedankenstrich zu verkleinern, oder auf die grünen Pfeile für benachbarte Karten.


METAR-TAF: